Terminal Aerodrome Forecast
Issued by NWS Topeka, KS

Home | Current Version | Previous Version | Text Only | Print | Product List | Glossary Off
Versions: 1 2 3 4 5 6 7 8 9 10 11 12 13 14 15 16

000
FTUS43 KTOP 220500
TAFTOP
TAF
KTOP 220520Z 2206/2306 01008KT P6SM BKN110
     FM221400 02008KT P6SM SCT100
     FM230000 07003KT P6SM SCT100=

USA.gov is the U.S. government's official web portal to all federal, state and local government web resources and services.